Time;durP1;ratioP1;P1;durP2;ratioP2;P2;SDS_P1;SDS_P2;PMS_P1;PMS_P2;Temp;Humidity;BMP_temperature;BMP_pressure;BME280_temperature;BME280_humidity;BME280_pressure;Samples;Min_cycle;Max_cycle;Signal;HPM_P1;HPM_P2
2023/01/23 00:01:35;;;;;;;10.07;9.38;;;;;;;;;;4993737;28;20116;-54
2023/01/23 00:04:01;;;;;;;9.23;8.63;;;;;;;;;;4994900;28;20034;-55
2023/01/23 00:06:27;;;;;;;10.27;9.48;;;;;;;;;;4995400;28;20113;-54
2023/01/23 00:08:52;;;;;;;9.50;8.90;;;;;;;;;;4993800;28;20042;-55
2023/01/23 00:11:22;;;;;;;10.48;9.77;;;;;;;;;;4993802;28;20030;-54
2023/01/23 00:13:47;;;;;;;10.63;9.93;;;;;;;;;;4997044;28;20046;-54
2023/01/23 00:16:21;;;;;;;9.82;9.20;;;;;;;;;;4998626;28;20160;-52
2023/01/23 00:18:48;;;;;;;12.05;9.82;;;;;;;;;;4997311;28;20108;-54
2023/01/23 00:21:16;;;;;;;10.15;9.50;;;;;;;;;;4998879;28;20068;-55
2023/01/23 00:23:50;;;;;;;10.85;10.15;;;;;;;;;;4996959;28;20061;-53
2023/01/23 00:26:21;;;;;;;10.70;10.00;;;;;;;;;;4998389;28;20042;-53
2023/01/23 00:28:47;;;;;;;10.25;9.65;;;;;;;;;;4999779;28;20384;-56
2023/01/23 00:31:16;;;;;;;10.00;9.40;;;;;;;;;;4995051;28;20034;-51
2023/01/23 00:33:42;;;;;;;9.85;9.15;;;;;;;;;;4988087;28;20030;-54
2023/01/23 00:36:07;;;;;;;10.30;9.60;;;;;;;;;;4996490;28;20543;-50
2023/01/23 00:38:33;;;;;;;11.27;10.48;;;;;;;;;;5004737;28;20038;-51
2023/01/23 00:40:59;;;;;;;10.77;9.88;;;;;;;;;;4996476;28;20389;-52
2023/01/23 00:43:24;;;;;;;11.05;10.35;;;;;;;;;;5005164;28;20046;-55
2023/01/23 00:45:50;;;;;;;9.95;9.30;;;;;;;;;;5000291;28;20038;-55
2023/01/23 00:48:16;;;;;;;9.57;8.93;;;;;;;;;;5000393;28;20030;-55
2023/01/23 00:50:41;;;;;;;10.50;9.80;;;;;;;;;;4999463;28;20901;-55
2023/01/23 00:53:07;;;;;;;11.00;10.10;;;;;;;;;;4999098;28;20057;-53
2023/01/23 00:55:32;;;;;;;9.70;9.10;;;;;;;;;;4998653;28;20038;-56
2023/01/23 00:57:58;;;;;;;10.23;9.52;;;;;;;;;;4998260;28;20108;-51
2023/01/23 01:00:24;;;;;;;10.70;9.90;;;;;;;;;;4996848;28;20037;-53
2023/01/23 01:02:49;;;;;;;10.63;9.88;;;;;;;;;;4995499;28;20104;-56
2023/01/23 01:05:16;;;;;;;10.32;9.52;;;;;;;;;;4998078;28;20413;-55
2023/01/23 01:07:43;;;;;;;11.23;10.52;;;;;;;;;;4999292;28;20030;-54
2023/01/23 01:10:09;;;;;;;10.02;9.43;;;;;;;;;;4997969;28;20531;-57
2023/01/23 01:12:34;;;;;;;10.57;9.85;;;;;;;;;;4996722;28;20026;-55
2023/01/23 01:15:01;;;;;;;10.48;9.77;;;;;;;;;;4995018;28;20090;-55
2023/01/23 01:17:26;;;;;;;10.27;9.57;;;;;;;;;;4998381;28;20465;-55
2023/01/23 01:19:51;;;;;;;9.55;8.95;;;;;;;;;;4996991;28;20109;-55
2023/01/23 01:22:17;;;;;;;11.25;10.35;;;;;;;;;;4995495;28;20073;-55
2023/01/23 01:24:42;;;;;;;9.88;9.23;;;;;;;;;;4995821;28;20436;-56
2023/01/23 01:27:08;;;;;;;10.85;9.95;;;;;;;;;;4997795;28;20034;-55
2023/01/23 01:29:33;;;;;;;9.93;9.32;;;;;;;;;;5000443;28;20468;-56
2023/01/23 01:31:58;;;;;;;10.43;9.63;;;;;;;;;;4992784;28;20042;-55
2023/01/23 01:34:24;;;;;;;11.20;10.43;;;;;;;;;;4995277;28;20468;-54
2023/01/23 01:36:50;;;;;;;11.40;10.60;;;;;;;;;;4995953;28;20468;-56
2023/01/23 01:39:16;;;;;;;11.52;10.55;;;;;;;;;;5005107;28;20030;-56
2023/01/23 01:41:41;;;;;;;10.52;9.88;;;;;;;;;;5003087;28;20036;-51
2023/01/23 01:44:14;;;;;;;10.27;9.57;;;;;;;;;;4997129;28;20076;-55
2023/01/23 01:46:40;;;;;;;10.43;9.43;;;;;;;;;;4997416;28;20038;-56
2023/01/23 01:49:10;;;;;;;11.10;10.40;;;;;;;;;;4999881;28;20030;-55
2023/01/23 01:51:39;;;;;;;11.07;10.38;;;;;;;;;;4995688;28;20134;-55
2023/01/23 01:54:14;;;;;;;11.45;10.73;;;;;;;;;;4998107;28;20049;-55
2023/01/23 01:56:49;;;;;;;10.65;9.95;;;;;;;;;;4997770;28;20046;-51
2023/01/23 01:59:15;;;;;;;10.27;9.60;;;;;;;;;;4995509;28;20115;-51
2023/01/23 02:01:43;;;;;;;10.65;9.95;;;;;;;;;;4996734;28;20038;-50
2023/01/23 02:04:09;;;;;;;11.30;10.50;;;;;;;;;;4994704;28;20042;-50
2023/01/23 02:06:34;;;;;;;11.02;10.32;;;;;;;;;;4996337;28;20593;-51
2023/01/23 02:09:13;;;;;;;10.32;9.52;;;;;;;;;;4995040;28;20038;-50
2023/01/23 02:11:39;;;;;;;9.85;9.25;;;;;;;;;;4998301;28;20096;-52
2023/01/23 02:14:05;;;;;;;10.02;9.30;;;;;;;;;;4996387;28;20034;-52
2023/01/23 02:16:38;;;;;;;10.45;9.75;;;;;;;;;;4997410;28;20034;-50
2023/01/23 02:19:19;;;;;;;10.13;9.45;;;;;;;;;;4995418;28;20038;-52
2023/01/23 02:21:48;;;;;;;10.80;10.10;;;;;;;;;;4995935;28;20380;-54
2023/01/23 02:24:21;;;;;;;10.02;9.32;;;;;;;;;;4995625;28;20069;-50
2023/01/23 02:26:46;;;;;;;9.88;9.23;;;;;;;;;;4997184;28;20464;-50
2023/01/23 02:29:14;;;;;;;10.52;9.77;;;;;;;;;;4996724;28;20049;-53
2023/01/23 02:31:41;;;;;;;10.35;9.63;;;;;;;;;;4993480;28;20066;-52
2023/01/23 02:34:09;;;;;;;10.75;10.05;;;;;;;;;;5000557;28;20045;-52
2023/01/23 02:36:35;;;;;;;9.57;8.98;;;;;;;;;;4998035;28;20030;-50
2023/01/23 02:39:02;;;;;;;9.32;8.73;;;;;;;;;;4997638;28;20206;-50
2023/01/23 02:41:31;;;;;;;12.20;10.95;;;;;;;;;;4994964;28;20043;-53
2023/01/23 02:44:01;;;;;;;10.45;9.77;;;;;;;;;;4997390;28;20415;-53
2023/01/23 02:46:26;;;;;;;10.00;9.30;;;;;;;;;;4997312;28;20057;-51
2023/01/23 02:48:52;;;;;;;10.40;9.70;;;;;;;;;;5000452;28;20074;-54
2023/01/23 02:51:19;;;;;;;11.27;10.45;;;;;;;;;;4995016;28;20045;-50
2023/01/23 02:53:45;;;;;;;9.80;9.20;;;;;;;;;;4998636;28;20210;-53
2023/01/23 02:56:10;;;;;;;10.20;9.60;;;;;;;;;;4997131;28;20528;-54
2023/01/23 03:01:20;;;;;;;9.93;9.32;;;;;;;;;;4993410;28;20410;-54
2023/01/23 03:03:46;;;;;;;10.27;9.57;;;;;;;;;;4996406;28;20181;-51
2023/01/23 03:06:11;;;;;;;10.00;9.35;;;;;;;;;;4994598;28;20360;-51
2023/01/23 03:08:46;;;;;;;10.05;9.43;;;;;;;;;;4995374;28;20053;-53
2023/01/23 03:11:12;;;;;;;11.30;10.50;;;;;;;;;;4994375;28;20135;-54
2023/01/23 03:13:37;;;;;;;10.52;9.82;;;;;;;;;;4994798;28;20038;-54
2023/01/23 03:16:03;;;;;;;10.70;10.00;;;;;;;;;;4994258;28;20048;-52
2023/01/23 03:18:29;;;;;;;10.68;9.88;;;;;;;;;;4996924;28;20100;-52
2023/01/23 03:20:55;;;;;;;10.20;9.52;;;;;;;;;;4993741;28;20042;-53
2023/01/23 03:23:20;;;;;;;11.07;10.05;;;;;;;;;;4995491;28;20447;-51
2023/01/23 03:25:47;;;;;;;10.85;10.15;;;;;;;;;;4996065;28;20034;-53
2023/01/23 03:30:57;;;;;;;10.82;10.13;;;;;;;;;;5001829;28;20413;-54
2023/01/23 03:33:23;;;;;;;11.13;10.43;;;;;;;;;;4996631;28;20137;-54
2023/01/23 03:35:48;;;;;;;11.45;10.68;;;;;;;;;;5001000;28;20148;-55
2023/01/23 03:38:16;;;;;;;10.32;9.68;;;;;;;;;;4996327;28;20393;-56
2023/01/23 03:43:30;;;;;;;11.73;10.82;;;;;;;;;;5001260;28;20128;-55
2023/01/23 03:45:55;;;;;;;12.23;11.32;;;;;;;;;;4995317;28;20066;-54
2023/01/23 03:48:21;;;;;;;10.95;10.05;;;;;;;;;;4998116;28;20523;-54
2023/01/23 03:50:46;;;;;;;10.65;9.93;;;;;;;;;;4997488;28;20039;-55
2023/01/23 03:53:12;;;;;;;11.23;10.45;;;;;;;;;;4998949;28;20131;-55
2023/01/23 03:55:37;;;;;;;11.85;10.70;;;;;;;;;;4999131;28;20056;-54
2023/01/23 03:58:02;;;;;;;10.57;9.77;;;;;;;;;;4999882;28;20686;-55
2023/01/23 04:00:28;;;;;;;10.98;10.27;;;;;;;;;;5001306;28;20091;-55
2023/01/23 04:02:53;;;;;;;11.40;10.52;;;;;;;;;;4997628;28;20057;-52
2023/01/23 04:05:18;;;;;;;10.02;9.43;;;;;;;;;;4995658;28;20045;-54
2023/01/23 04:07:44;;;;;;;11.07;10.27;;;;;;;;;;4996677;28;20030;-51
2023/01/23 04:10:09;;;;;;;10.18;9.52;;;;;;;;;;4999466;28;20300;-53
2023/01/23 04:12:35;;;;;;;9.93;9.25;;;;;;;;;;4997919;28;20049;-53
2023/01/23 04:15:00;;;;;;;10.93;10.23;;;;;;;;;;4997997;28;20037;-55
2023/01/23 04:17:25;;;;;;;9.88;9.27;;;;;;;;;;4999852;28;20026;-52
2023/01/23 04:19:51;;;;;;;9.38;8.77;;;;;;;;;;4997502;28;20030;-56
2023/01/23 04:22:16;;;;;;;11.60;10.48;;;;;;;;;;4997829;28;20034;-55
2023/01/23 04:24:41;;;;;;;9.65;9.05;;;;;;;;;;4995847;28;20029;-55
2023/01/23 04:27:07;;;;;;;10.65;9.95;;;;;;;;;;4996975;28;20073;-55
2023/01/23 04:29:32;;;;;;;9.90;9.00;;;;;;;;;;4998431;28;20044;-54
2023/01/23 04:31:58;;;;;;;10.73;9.98;;;;;;;;;;5001540;28;20129;-54
2023/01/23 04:34:23;;;;;;;10.73;10.02;;;;;;;;;;4996831;28;20037;-54
2023/01/23 04:36:48;;;;;;;9.88;9.25;;;;;;;;;;4998435;28;20041;-55
2023/01/23 04:39:14;;;;;;;9.70;9.10;;;;;;;;;;5000264;28;20038;-54
2023/01/23 04:41:39;;;;;;;11.05;10.25;;;;;;;;;;4999398;28;20045;-55
2023/01/23 04:44:20;;;;;;;10.50;9.80;;;;;;;;;;4997041;28;20030;-54
2023/01/23 04:46:48;;;;;;;11.23;10.48;;;;;;;;;;4999240;28;20099;-53
2023/01/23 04:49:14;;;;;;;10.05;9.35;;;;;;;;;;4999386;28;20096;-56
2023/01/23 04:51:43;;;;;;;11.55;10.85;;;;;;;;;;4998075;28;20038;-54
2023/01/23 04:54:08;;;;;;;10.10;9.50;;;;;;;;;;4997739;28;20070;-54
2023/01/23 04:56:34;;;;;;;10.95;10.23;;;;;;;;;;4996627;28;20483;-52
2023/01/23 04:58:59;;;;;;;10.23;9.30;;;;;;;;;;4981637;28;20080;-54
2023/01/23 05:01:24;;;;;;;9.52;8.88;;;;;;;;;;4997939;28;20137;-54
2023/01/23 05:03:51;;;;;;;10.07;9.40;;;;;;;;;;4998630;28;20072;-56
2023/01/23 05:06:17;;;;;;;10.35;9.65;;;;;;;;;;4998302;28;20614;-55
2023/01/23 05:08:42;;;;;;;10.80;10.10;;;;;;;;;;4996669;28;20069;-54
2023/01/23 05:11:08;;;;;;;10.50;9.80;;;;;;;;;;4995400;28;20053;-54
2023/01/23 05:13:33;;;;;;;10.68;9.98;;;;;;;;;;4997192;28;20042;-54
2023/01/23 05:15:58;;;;;;;10.93;10.07;;;;;;;;;;4997931;28;20121;-54
2023/01/23 05:18:24;;;;;;;10.30;9.55;;;;;;;;;;4997048;28;20041;-55
2023/01/23 05:20:49;;;;;;;10.45;9.75;;;;;;;;;;4994431;28;20065;-53
2023/01/23 05:23:15;;;;;;;10.60;9.90;;;;;;;;;;4997709;28;20038;-55
2023/01/23 05:25:40;;;;;;;11.45;10.70;;;;;;;;;;4996363;28;20065;-54
2023/01/23 05:28:05;;;;;;;10.23;9.52;;;;;;;;;;4996771;28;20110;-54
2023/01/23 05:30:31;;;;;;;10.25;9.63;;;;;;;;;;4996995;28;20045;-55
2023/01/23 05:32:56;;;;;;;9.30;8.70;;;;;;;;;;4997547;28;20638;-54
2023/01/23 05:35:22;;;;;;;9.73;9.00;;;;;;;;;;4997408;28;20117;-55
2023/01/23 05:37:49;;;;;;;9.70;9.00;;;;;;;;;;4996627;28;20030;-53
2023/01/23 05:40:14;;;;;;;11.95;10.05;;;;;;;;;;4996543;28;20044;-54
2023/01/23 05:42:40;;;;;;;10.57;9.88;;;;;;;;;;4998927;28;20038;-55
2023/01/23 05:45:05;;;;;;;9.85;9.15;;;;;;;;;;4995912;28;20531;-55
2023/01/23 05:47:31;;;;;;;10.90;10.18;;;;;;;;;;4998615;28;20121;-55
2023/01/23 05:49:56;;;;;;;9.30;8.68;;;;;;;;;;4998714;28;20034;-55
2023/01/23 05:52:22;;;;;;;9.57;8.98;;;;;;;;;;4995737;28;20042;-53
2023/01/23 05:54:47;;;;;;;10.07;9.40;;;;;;;;;;4996627;28;20038;-54
2023/01/23 05:57:12;;;;;;;10.65;9.85;;;;;;;;;;4998215;28;20034;-55
2023/01/23 05:59:38;;;;;;;10.45;9.68;;;;;;;;;;4996488;28;20337;-55
2023/01/23 06:02:03;;;;;;;10.43;9.73;;;;;;;;;;4997171;28;20041;-55
2023/01/23 06:04:29;;;;;;;10.40;9.70;;;;;;;;;;4996459;28;20112;-55
2023/01/23 06:06:54;;;;;;;10.60;9.90;;;;;;;;;;4995975;28;20087;-56
2023/01/23 06:09:19;;;;;;;10.73;10.02;;;;;;;;;;4994943;28;20883;-55
2023/01/23 06:11:45;;;;;;;10.20;9.50;;;;;;;;;;5011358;28;20038;-55
2023/01/23 06:14:10;;;;;;;10.93;10.13;;;;;;;;;;4995385;28;20064;-55
2023/01/23 06:16:35;;;;;;;10.40;9.70;;;;;;;;;;4996372;28;20046;-53
2023/01/23 06:19:01;;;;;;;10.43;9.75;;;;;;;;;;4996007;28;20420;-55
2023/01/23 06:21:26;;;;;;;10.98;10.20;;;;;;;;;;4994993;28;20426;-51
2023/01/23 06:23:51;;;;;;;9.90;9.30;;;;;;;;;;4996188;28;20065;-55
2023/01/23 06:26:17;;;;;;;9.80;9.20;;;;;;;;;;4996278;28;20061;-52
2023/01/23 06:28:42;;;;;;;10.27;9.57;;;;;;;;;;4997145;28;20048;-53
2023/01/23 06:31:09;;;;;;;11.20;10.50;;;;;;;;;;4994776;28;20030;-51
2023/01/23 06:33:37;;;;;;;10.43;9.73;;;;;;;;;;4994875;28;20144;-51
2023/01/23 06:36:05;;;;;;;10.90;10.20;;;;;;;;;;4994950;28;20038;-51
2023/01/23 06:38:31;;;;;;;11.13;10.43;;;;;;;;;;4998149;28;20022;-52
2023/01/23 06:40:56;;;;;;;10.30;9.70;;;;;;;;;;4995660;28;20045;-53
2023/01/23 06:43:23;;;;;;;11.15;10.43;;;;;;;;;;4994710;28;20145;-53
2023/01/23 06:45:48;;;;;;;10.52;9.82;;;;;;;;;;4995810;28;20037;-55
2023/01/23 06:48:14;;;;;;;10.73;10.02;;;;;;;;;;4998405;28;20585;-53
2023/01/23 06:50:41;;;;;;;10.50;9.80;;;;;;;;;;4995019;28;20045;-56
2023/01/23 06:53:07;;;;;;;10.32;9.63;;;;;;;;;;4994897;28;20083;-56
2023/01/23 06:55:33;;;;;;;10.35;9.73;;;;;;;;;;4995468;28;20042;-56
2023/01/23 06:57:58;;;;;;;10.23;9.52;;;;;;;;;;4997139;28;20453;-54
2023/01/23 07:00:24;;;;;;;9.60;8.98;;;;;;;;;;4995850;28;20038;-55
2023/01/23 07:02:51;;;;;;;11.02;10.13;;;;;;;;;;4995097;28;20057;-52
2023/01/23 07:05:17;;;;;;;10.15;9.45;;;;;;;;;;4995133;28;20468;-55
2023/01/23 07:07:43;;;;;;;10.25;9.55;;;;;;;;;;4995797;28;20101;-55
2023/01/23 07:10:09;;;;;;;10.13;9.48;;;;;;;;;;4993704;28;20479;-55
2023/01/23 07:12:34;;;;;;;9.68;8.98;;;;;;;;;;4982606;28;20026;-55
2023/01/23 07:15:00;;;;;;;11.93;11.13;;;;;;;;;;4992587;28;20358;-56
2023/01/23 07:17:25;;;;;;;9.63;9.02;;;;;;;;;;4999367;28;20037;-55
2023/01/23 07:19:50;;;;;;;10.73;9.98;;;;;;;;;;4994363;28;20026;-54
2023/01/23 07:22:18;;;;;;;10.18;9.57;;;;;;;;;;4994314;28;20065;-55
2023/01/23 07:24:43;;;;;;;9.88;9.23;;;;;;;;;;4995451;28;20130;-56
2023/01/23 07:27:08;;;;;;;10.45;9.80;;;;;;;;;;4994206;28;20109;-55
2023/01/23 07:29:34;;;;;;;9.60;9.00;;;;;;;;;;4994976;28;20479;-55
2023/01/23 07:32:00;;;;;;;12.00;11.20;;;;;;;;;;4997236;28;20043;-55
2023/01/23 07:34:25;;;;;;;11.00;10.20;;;;;;;;;;4995350;28;20029;-53
2023/01/23 07:36:51;;;;;;;10.85;10.15;;;;;;;;;;4992584;28;20041;-52
2023/01/23 07:39:16;;;;;;;10.82;10.15;;;;;;;;;;4996523;28;20471;-55
2023/01/23 07:41:41;;;;;;;9.80;9.20;;;;;;;;;;4995218;28;20042;-55
2023/01/23 07:44:08;;;;;;;11.60;10.70;;;;;;;;;;5000155;28;20787;-56
2023/01/23 07:46:33;;;;;;;9.27;8.68;;;;;;;;;;4995390;28;20451;-51
2023/01/23 07:48:58;;;;;;;9.48;8.88;;;;;;;;;;4998299;28;20084;-54
2023/01/23 07:51:24;;;;;;;9.80;9.20;;;;;;;;;;4991852;28;20038;-54
2023/01/23 07:53:49;;;;;;;9.18;8.57;;;;;;;;;;4997307;28;20054;-51
2023/01/23 07:56:14;;;;;;;11.48;10.68;;;;;;;;;;4994343;28;20512;-54
2023/01/23 07:58:40;;;;;;;10.13;9.43;;;;;;;;;;4995145;28;20531;-55
2023/01/23 08:01:07;;;;;;;10.82;10.05;;;;;;;;;;4996712;28;20034;-55
2023/01/23 08:03:32;;;;;;;9.88;9.18;;;;;;;;;;4993398;28;20034;-54
2023/01/23 08:05:58;;;;;;;10.10;9.45;;;;;;;;;;4995771;28;20033;-55
2023/01/23 08:08:24;;;;;;;10.25;9.55;;;;;;;;;;4996568;28;21335;-53
2023/01/23 08:10:49;;;;;;;10.85;10.13;;;;;;;;;;4995517;28;20041;-55
2023/01/23 08:13:14;;;;;;;9.43;8.82;;;;;;;;;;4993495;28;20053;-54
2023/01/23 08:15:40;;;;;;;10.10;9.45;;;;;;;;;;4995423;28;20038;-55
2023/01/23 08:18:06;;;;;;;10.07;9.38;;;;;;;;;;4993624;28;20050;-54
2023/01/23 08:20:31;;;;;;;9.88;9.27;;;;;;;;;;4997832;28;20511;-54
2023/01/23 08:22:57;;;;;;;10.45;9.75;;;;;;;;;;4996629;28;20117;-55
2023/01/23 08:25:23;;;;;;;10.38;9.73;;;;;;;;;;4997358;28;20129;-55
2023/01/23 08:27:48;;;;;;;10.77;9.98;;;;;;;;;;4995605;28;20094;-55
2023/01/23 08:30:14;;;;;;;10.90;10.13;;;;;;;;;;4996891;28;20116;-54
2023/01/23 08:32:39;;;;;;;11.77;10.63;;;;;;;;;;4993911;28;20049;-53
2023/01/23 08:35:05;;;;;;;9.98;9.35;;;;;;;;;;4995205;28;20403;-52
2023/01/23 08:37:32;;;;;;;10.35;9.65;;;;;;;;;;5014662;28;21382;-53
2023/01/23 08:39:57;;;;;;;10.10;9.50;;;;;;;;;;4999443;28;20095;-53
2023/01/23 08:42:22;;;;;;;9.32;8.73;;;;;;;;;;5000108;28;20388;-54
2023/01/23 08:44:48;;;;;;;10.20;9.50;;;;;;;;;;5000598;28;20030;-52
2023/01/23 08:47:13;;;;;;;9.90;9.30;;;;;;;;;;4999014;28;20031;-55
2023/01/23 08:49:38;;;;;;;11.30;10.55;;;;;;;;;;4999758;28;20038;-52
2023/01/23 08:52:05;;;;;;;10.48;9.77;;;;;;;;;;4997963;28;20480;-54
2023/01/23 08:54:31;;;;;;;11.18;10.38;;;;;;;;;;4997964;28;20037;-54
2023/01/23 08:56:56;;;;;;;11.00;10.20;;;;;;;;;;4999245;28;20034;-51
2023/01/23 08:59:21;;;;;;;9.48;8.88;;;;;;;;;;4996770;28;20053;-55
2023/01/23 09:01:47;;;;;;;10.60;9.90;;;;;;;;;;4995517;28;20030;-53
2023/01/23 09:04:13;;;;;;;10.57;9.88;;;;;;;;;;4997294;28;20449;-54
2023/01/23 09:06:38;;;;;;;10.63;9.93;;;;;;;;;;4995988;28;20393;-51
2023/01/23 09:09:04;;;;;;;10.40;9.80;;;;;;;;;;4997324;28;20034;-51
2023/01/23 09:11:29;;;;;;;10.32;9.68;;;;;;;;;;4998575;28;20117;-55
2023/01/23 09:13:55;;;;;;;10.98;10.18;;;;;;;;;;4998834;28;20483;-53
2023/01/23 09:16:20;;;;;;;11.25;10.45;;;;;;;;;;4998497;28;20042;-53
2023/01/23 09:18:46;;;;;;;10.82;10.13;;;;;;;;;;4997912;28;20033;-51
2023/01/23 09:21:15;;;;;;;11.20;10.50;;;;;;;;;;4995612;28;20057;-53
2023/01/23 09:23:41;;;;;;;10.63;9.93;;;;;;;;;;4998275;28;20030;-54
2023/01/23 09:26:09;;;;;;;12.10;11.27;;;;;;;;;;4996261;28;20095;-55
2023/01/23 09:28:35;;;;;;;11.50;10.57;;;;;;;;;;4996714;28;20040;-53
2023/01/23 09:31:06;;;;;;;9.80;9.20;;;;;;;;;;4997373;28;20538;-56
2023/01/23 09:33:32;;;;;;;10.50;9.90;;;;;;;;;;4993980;28;20053;-55
2023/01/23 09:35:58;;;;;;;11.02;10.32;;;;;;;;;;4998596;28;20436;-56
2023/01/23 09:38:23;;;;;;;11.00;10.27;;;;;;;;;;4997954;28;20061;-56
2023/01/23 09:40:52;;;;;;;11.63;10.80;;;;;;;;;;4995028;28;20061;-56
2023/01/23 09:43:34;;;;;;;11.00;10.30;;;;;;;;;;4996891;28;20049;-56
2023/01/23 09:46:34;;;;;;;10.98;10.27;;;;;;;;;;4993387;28;20524;-57
2023/01/23 09:49:08;;;;;;;10.57;9.88;;;;;;;;;;4995163;28;20049;-56
2023/01/23 09:51:36;;;;;;;9.63;9.02;;;;;;;;;;4995207;28;20042;-55
2023/01/23 09:54:45;;;;;;;10.57;9.93;;;;;;;;;;4996252;28;20044;-57
2023/01/23 09:57:37;;;;;;;11.35;10.45;;;;;;;;;;4996739;28;20121;-57
2023/01/23 10:00:05;;;;;;;10.82;10.13;;;;;;;;;;4994581;28;20416;-55
2023/01/23 10:02:32;;;;;;;10.18;9.57;;;;;;;;;;4996386;28;20042;-61
2023/01/23 10:04:58;;;;;;;10.85;10.15;;;;;;;;;;4996957;28;20376;-56
2023/01/23 10:07:33;;;;;;;10.40;9.70;;;;;;;;;;5000605;28;20057;-56
2023/01/23 10:10:19;;;;;;;10.32;9.63;;;;;;;;;;4994347;28;20386;-56
2023/01/23 10:13:07;;;;;;;10.60;9.80;;;;;;;;;;4994915;28;20042;-55
2023/01/23 10:16:04;;;;;;;10.23;9.63;;;;;;;;;;4995350;28;20121;-56
2023/01/23 10:18:43;;;;;;;10.90;10.20;;;;;;;;;;4996506;28;20064;-56
2023/01/23 10:21:34;;;;;;;11.38;10.68;;;;;;;;;;4997022;28;20069;-55
2023/01/23 10:24:02;;;;;;;;;;;;;;;;;;5002063;28;20034;-56
2023/01/23 10:26:40;;;;;;;11.15;10.45;;;;;;;;;;5029300;28;19921;-56
2023/01/23 10:29:14;;;;;;;11.38;10.68;;;;;;;;;;4995985;28;20427;-56
2023/01/23 10:31:52;;;;;;;11.48;10.73;;;;;;;;;;4993844;28;20034;-56
2023/01/23 10:34:25;;;;;;;11.52;10.82;;;;;;;;;;4995478;28;20084;-56
2023/01/23 10:37:15;;;;;;;12.05;11.27;;;;;;;;;;4995666;28;20077;-56
2023/01/23 10:40:13;;;;;;;11.13;10.43;;;;;;;;;;4995240;28;20565;-57
2023/01/23 10:42:38;;;;;;;11.82;11.10;;;;;;;;;;4993545;28;20405;-56
2023/01/23 10:45:05;;;;;;;11.93;11.20;;;;;;;;;;4995731;28;20057;-56
2023/01/23 10:47:46;;;;;;;12.20;11.45;;;;;;;;;;4996609;28;20045;-56
2023/01/23 10:50:12;;;;;;;10.98;10.27;;;;;;;;;;4997493;28;20120;-58
2023/01/23 10:52:39;;;;;;;12.50;11.70;;;;;;;;;;4991687;28;20085;-57
2023/01/23 10:55:26;;;;;;;12.13;11.18;;;;;;;;;;4994895;28;20538;-57
2023/01/23 10:57:54;;;;;;;11.52;10.73;;;;;;;;;;4995170;28;20034;-57
2023/01/23 11:00:34;;;;;;;11.95;11.25;;;;;;;;;;5002174;28;20033;-55
2023/01/23 11:03:18;;;;;;;11.45;10.75;;;;;;;;;;4995144;28;20113;-57
2023/01/23 11:05:52;;;;;;;12.90;12.00;;;;;;;;;;4995233;28;20069;-57
2023/01/23 11:08:33;;;;;;;11.32;10.63;;;;;;;;;;4996490;28;20520;-57
2023/01/23 11:11:13;;;;;;;11.30;10.60;;;;;;;;;;4993854;28;20128;-57
2023/01/23 11:13:38;;;;;;;11.55;10.75;;;;;;;;;;4994566;28;20104;-57
2023/01/23 11:16:04;;;;;;;10.95;10.25;;;;;;;;;;4995848;28;20033;-56
2023/01/23 11:18:41;;;;;;;11.85;11.05;;;;;;;;;;4990678;28;20460;-57
2023/01/23 11:21:20;;;;;;;11.57;10.88;;;;;;;;;;4997331;28;20042;-56
2023/01/23 11:23:45;;;;;;;10.60;9.90;;;;;;;;;;4995478;28;20077;-54
2023/01/23 11:26:29;;;;;;;10.95;10.25;;;;;;;;;;4996374;28;20088;-56
2023/01/23 11:28:55;;;;;;;11.48;10.77;;;;;;;;;;4993756;28;20053;-57
2023/01/23 11:31:22;;;;;;;11.93;11.15;;;;;;;;;;4995913;28;20049;-57
2023/01/23 11:34:07;;;;;;;11.95;11.15;;;;;;;;;;4998269;28;20057;-57
2023/01/23 11:37:10;;;;;;;12.07;11.27;;;;;;;;;;4998384;28;20037;-54
2023/01/23 11:40:06;;;;;;;11.00;10.30;;;;;;;;;;4994224;28;20038;-55
2023/01/23 11:42:33;;;;;;;11.07;10.38;;;;;;;;;;4991572;28;20038;-57
2023/01/23 11:44:58;;;;;;;11.15;10.35;;;;;;;;;;4996322;28;20038;-56
2023/01/23 11:47:59;;;;;;;11.68;10.98;;;;;;;;;;4994985;28;20031;-56
2023/01/23 11:50:33;;;;;;;11.38;10.68;;;;;;;;;;4985339;28;20046;-54
2023/01/23 11:53:05;;;;;;;11.25;10.50;;;;;;;;;;4993470;28;20034;-55
2023/01/23 11:55:55;;;;;;;11.82;11.02;;;;;;;;;;4996015;28;20030;-57
2023/01/23 11:58:45;;;;;;;10.27;9.63;;;;;;;;;;4994293;28;20459;-56
2023/01/23 12:01:21;;;;;;;10.82;10.13;;;;;;;;;;4992303;28;20031;-56
2023/01/23 12:03:57;;;;;;;10.27;9.63;;;;;;;;;;4992801;28;20112;-52
2023/01/23 12:06:32;;;;;;;10.50;9.82;;;;;;;;;;4997012;28;20100;-54
2023/01/23 12:09:08;;;;;;;10.55;9.85;;;;;;;;;;4994452;28;20042;-54
2023/01/23 12:12:04;;;;;;;10.75;10.05;;;;;;;;;;4995286;28;20034;-55
2023/01/23 12:14:46;;;;;;;10.88;10.18;;;;;;;;;;4996637;28;20428;-55
2023/01/23 12:17:39;;;;;;;11.50;10.80;;;;;;;;;;4999351;28;20058;-51
2023/01/23 12:20:27;;;;;;;11.43;10.73;;;;;;;;;;4999996;28;20091;-54
2023/01/23 12:23:02;;;;;;;10.43;9.80;;;;;;;;;;4998855;28;20033;-52
2023/01/23 12:25:34;;;;;;;10.63;9.93;;;;;;;;;;4998996;28;20041;-53
2023/01/23 12:28:09;;;;;;;12.25;11.38;;;;;;;;;;4995060;28;20034;-53
2023/01/23 12:31:11;;;;;;;10.73;10.02;;;;;;;;;;4998413;28;20033;-52
2023/01/23 12:33:49;;;;;;;11.13;10.23;;;;;;;;;;4998061;28;20034;-52
2023/01/23 12:36:48;;;;;;;10.55;9.90;;;;;;;;;;4999660;28;20034;-52
2023/01/23 12:39:23;;;;;;;10.73;10.02;;;;;;;;;;4997691;28;20041;-51
2023/01/23 12:42:02;;;;;;;10.10;9.40;;;;;;;;;;4997694;28;20105;-53
2023/01/23 12:44:40;;;;;;;11.07;10.38;;;;;;;;;;4999582;28;20455;-53
2023/01/23 12:47:23;;;;;;;11.68;10.80;;;;;;;;;;4997063;28;20353;-53
2023/01/23 12:49:57;;;;;;;10.20;9.60;;;;;;;;;;4995401;28;20041;-51
2023/01/23 12:52:31;;;;;;;10.40;9.70;;;;;;;;;;4996794;28;20148;-55
2023/01/23 12:55:04;;;;;;;10.60;9.90;;;;;;;;;;4997692;28;20472;-54
2023/01/23 12:57:40;;;;;;;11.18;10.32;;;;;;;;;;4997716;28;20033;-53
2023/01/23 13:00:27;;;;;;;10.85;10.15;;;;;;;;;;5000233;28;20030;-52
2023/01/23 13:03:19;;;;;;;10.75;10.05;;;;;;;;;;4997079;28;20415;-52
2023/01/23 13:05:55;;;;;;;10.07;9.48;;;;;;;;;;4998342;28;20095;-52
2023/01/23 13:08:43;;;;;;;10.18;9.50;;;;;;;;;;4992921;28;20034;-54
2023/01/23 13:13:58;;;;;;;12.02;11.23;;;;;;;;;;4997460;28;20084;-53
2023/01/23 13:16:30;;;;;;;12.98;12.18;;;;;;;;;;4994207;28;20038;-54
2023/01/23 13:22:21;;;;;;;13.25;12.35;;;;;;;;;;4997296;28;20420;-54
2023/01/23 13:25:09;;;;;;;13.52;12.73;;;;;;;;;;4999561;28;20444;-53
2023/01/23 13:27:43;;;;;;;13.88;12.98;;;;;;;;;;4993911;28;20052;-54
2023/01/23 13:30:39;;;;;;;14.07;13.20;;;;;;;;;;5012288;28;20372;-51
2023/01/23 13:33:06;;;;;;;13.27;12.48;;;;;;;;;;4986052;28;20487;-51
2023/01/23 13:35:38;;;;;;;14.18;13.13;;;;;;;;;;4995587;28;20062;-53
2023/01/23 13:38:39;;;;;;;12.70;11.95;;;;;;;;;;4996610;28;20452;-53
2023/01/23 13:41:07;;;;;;;11.95;11.25;;;;;;;;;;4992340;28;20170;-52
2023/01/23 13:43:45;;;;;;;12.82;12.02;;;;;;;;;;4995377;28;20038;-53
2023/01/23 13:46:30;;;;;;;13.18;12.27;;;;;;;;;;4995223;28;20049;-54
2023/01/23 13:51:49;;;;;;;13.00;12.20;;;;;;;;;;4995493;28;20046;-52
2023/01/23 13:57:06;;;;;;;;;;;;;;;;;;4995207;28;20092;-53
2023/01/23 13:59:36;;;;;;;13.00;12.05;;;;;;;;;;4998247;28;19917;-53
2023/01/23 14:05:12;;;;;;;13.40;12.60;;;;;;;;;;5004625;28;20040;-53
2023/01/23 14:07:42;;;;;;;13.25;12.40;;;;;;;;;;4997768;28;20513;-52
2023/01/23 14:10:33;;;;;;;12.90;12.10;;;;;;;;;;4998013;28;21211;-53
2023/01/23 14:13:02;;;;;;;13.55;12.55;;;;;;;;;;4995740;28;20057;-53
2023/01/23 14:18:19;;;;;;;13.18;12.27;;;;;;;;;;4997906;28;20125;-54
2023/01/23 14:20:45;;;;;;;12.57;11.77;;;;;;;;;;4999707;28;20376;-53
2023/01/23 14:23:33;;;;;;;12.48;11.68;;;;;;;;;;4997692;28;20077;-52
2023/01/23 14:26:00;;;;;;;13.80;12.93;;;;;;;;;;4991305;28;20041;-52
2023/01/23 14:28:26;;;;;;;13.65;12.85;;;;;;;;;;4998689;28;20368;-54
2023/01/23 14:31:04;;;;;;;14.45;13.40;;;;;;;;;;5002563;28;20375;-53
2023/01/23 14:33:47;;;;;;;13.25;12.45;;;;;;;;;;4996593;28;20113;-55
2023/01/23 14:36:18;;;;;;;13.65;12.75;;;;;;;;;;4998667;28;20030;-55
2023/01/23 14:38:46;;;;;;;13.87;12.93;;;;;;;;;;4999412;28;20030;-54
2023/01/23 14:41:12;;;;;;;12.10;11.25;;;;;;;;;;4997698;28;20034;-56
2023/01/23 14:43:40;;;;;;;13.25;12.45;;;;;;;;;;4996310;28;20037;-54
2023/01/23 14:46:13;;;;;;;12.45;11.75;;;;;;;;;;4997073;28;20038;-51
2023/01/23 14:48:41;;;;;;;12.38;11.57;;;;;;;;;;4996481;28;20057;-52
2023/01/23 14:51:21;;;;;;;13.52;12.55;;;;;;;;;;4996740;28;20034;-54
2023/01/23 14:54:17;;;;;;;12.43;11.73;;;;;;;;;;4997946;28;20033;-54
2023/01/23 14:56:45;;;;;;;13.23;12.43;;;;;;;;;;4995481;28;20061;-54
2023/01/23 14:59:35;;;;;;;14.73;13.73;;;;;;;;;;4997871;28;20033;-55
2023/01/23 15:02:03;;;;;;;14.13;13.10;;;;;;;;;;4997365;28;20065;-55
2023/01/23 15:04:30;;;;;;;12.85;12.05;;;;;;;;;;4995331;28;20038;-55
2023/01/23 15:06:58;;;;;;;13.75;12.80;;;;;;;;;;4996650;28;20092;-55
2023/01/23 15:09:33;;;;;;;13.75;12.75;;;;;;;;;;4996809;28;20047;-55